SILO ALERT LOG


Silo ID Alert Type Alert Message Silo Type Points Depth (mm) Strength Temperature (°C) Humidity (%) Height (mm) Volume (㎥) Weight (t) Flag Time
DJSAD03 Humidity 습도센서 측정값이 80% 초과 444 1660 6124 3.4 84.5 7119 294.71 186.316 0 2024-01-10 15:39:39.000
DJSAD01 Humidity 습도센서 측정값이 80% 초과 480 1522 7363 1.9 88 7257 300.438 189.937 0 2024-01-10 15:39:39.000
DJSSD04 Temperature 온도센서 상태 이상 0 8200 0 -999 -999 -120 -16.702 0 31 2024-01-10 15:39:33.000
DJSAD18 Humidity 습도센서 측정값이 80% 초과 121 1292 5780 5.3 80.8 6287 626.137 395.844 11 2024-01-10 15:39:32.000
DJSSD01 Humidity 습도센서 측정값이 80% 초과 785 2588 4731 6.3 81.5 5491 764.32 483.203 0 2024-01-10 15:39:32.000
DJSSD09 Temperature 온도센서 측정값이 0도 미만 117 2914 2970 -45.4 0 4765 663.324 419.354 11 2024-01-10 15:39:32.000
DJHNR01 Humidity 습도센서 측정값이 80% 초과 호퍼 471 4307 5022 5.8 99.9 11072 472.886 298.959 13 2024-01-10 15:39:32.000
DJDJD04 Humidity 습도센서 측정값이 80% 초과 278 4193 4382 5.4 81 3486 422.397 267.039 11 2024-01-10 15:39:32.000
DJSAD12 Humidity 습도센서 측정값이 80% 초과 0 7700 0 3.4 86.4 -120 -17.075 0 31 2024-01-10 15:39:32.000
DJSSD05 Temperature 온도센서 측정값이 0도 미만 848 2549 4867 -45.4 43.7 5530 769.74 486.63 0 2024-01-10 15:39:32.000
DJSAD07 Humidity 습도센서 측정값이 80% 초과 167 2193 2381 4.3 85.4 5386 766.515 484.591 11 2024-01-10 15:39:31.000
DJSSD12 Temperature 온도센서 상태 이상 호퍼 0 11350 0 -999 -999 -120 0 0 31 2024-01-10 15:39:24.000
DJHNR03 Temperature 온도센서 상태 이상 호퍼 0 15500 0 -999 -999 -119 0 0 31 2024-01-10 15:39:24.000
DJHNR12 Humidity 습도센서 측정값이 80% 초과 호퍼 0 10500 0 1.3 81.8 -120 0 0 31 2024-01-10 15:39:23.000
DJSAD03 Humidity 습도센서 측정값이 80% 초과 445 1727 6114 3.5 84.5 7052 291.953 184.573 0 2024-01-10 14:39:40.000
DJSAD05 Humidity 습도센서 측정값이 80% 초과 492 888 15331 2.4 80.5 7891 326.69 206.533 11 2024-01-10 14:39:39.000
DJSAD02 Humidity 습도센서 측정값이 80% 초과 392 1129 4291 2.6 87.6 7650 316.684 200.208 11 2024-01-10 14:39:39.000
DJSAD01 Humidity 습도센서 측정값이 80% 초과 435 1513 7326 2 88 7266 300.821 190.179 0 2024-01-10 14:39:39.000
DJSAD12 Humidity 습도센서 측정값이 80% 초과 0 7700 0 3.3 86.4 -120 -17.075 0 31 2024-01-10 14:39:33.000
DJSSD04 Temperature 온도센서 상태 이상 0 8200 0 -999 -999 -120 -16.702 0 31 2024-01-10 14:39:33.000

[첫 페이지] [10017] [10018] [10019] [10020] 10021 [10022] [10023] [10024] [10025] [마지막 페이지]